createdAt,value
2019-05-11T00:01:09.169Z,99358.00
2019-05-11T00:03:15.546Z,99357.12
2019-05-11T00:05:22.070Z,99355.37
2019-05-11T00:07:28.639Z,99356.27
2019-05-11T00:09:35.186Z,99361.09
2019-05-11T00:11:41.614Z,99354.95
2019-05-11T00:13:48.025Z,99355.01
2019-05-11T00:15:54.510Z,99351.08
2019-05-11T00:18:01.022Z,99355.05
2019-05-11T00:20:09.326Z,99356.84
2019-05-11T00:22:15.787Z,99354.67
2019-05-11T00:24:22.265Z,99352.91
2019-05-11T00:26:28.777Z,99349.02
2019-05-11T00:28:35.271Z,99355.62
2019-05-11T00:30:41.741Z,99355.17
2019-05-11T00:32:48.571Z,99349.92
2019-05-11T00:34:54.947Z,99350.88
2019-05-11T00:37:01.454Z,99348.70
2019-05-11T00:39:09.165Z,99349.58
2019-05-11T00:41:15.601Z,99351.77
2019-05-11T00:43:22.055Z,99353.09
2019-05-11T00:45:28.528Z,99350.45
2019-05-11T00:47:35.135Z,99346.50
2019-05-11T00:49:41.693Z,99354.39
2019-05-11T00:51:48.221Z,99358.26
2019-05-11T00:53:55.340Z,99373.17
2019-05-11T00:56:01.787Z,99366.13
2019-05-11T00:58:08.255Z,99364.34
2019-05-11T01:00:15.926Z,99363.88
2019-05-11T01:02:22.313Z,99360.37
2019-05-11T01:04:28.721Z,99363.02
2019-05-11T01:06:35.278Z,99365.19
2019-05-11T01:08:41.719Z,99371.34
2019-05-11T01:10:48.144Z,99366.09
2019-05-11T01:12:54.545Z,99365.24
2019-05-11T01:15:01.014Z,99367.46
2019-05-11T01:17:08.757Z,99370.09
2019-05-11T01:19:15.365Z,99371.48
2019-05-11T01:21:21.782Z,99371.06
2019-05-11T01:23:28.329Z,99372.41
2019-05-11T01:25:35.890Z,99375.95
2019-05-11T01:27:42.305Z,99375.08
2019-05-11T01:29:48.719Z,99372.04
2019-05-11T01:31:55.107Z,99371.19
2019-05-11T01:34:01.498Z,99363.28
2019-05-11T01:36:07.990Z,99357.59
2019-05-11T01:38:14.490Z,99361.56
2019-05-11T01:40:21.087Z,99359.79
2019-05-11T01:42:27.497Z,99355.86
2019-05-11T01:44:34.034Z,99353.67
2019-05-11T01:46:40.423Z,99351.94
2019-05-11T01:48:46.864Z,99357.19
2019-05-11T01:50:54.491Z,99357.20
2019-05-11T01:53:00.967Z,99348.44
2019-05-11T01:55:07.681Z,99357.64
2019-05-11T01:57:14.092Z,99351.06
2019-05-11T01:59:20.525Z,99346.23
2019-05-11T02:01:28.124Z,99349.33
2019-05-11T02:03:34.636Z,99358.09
2019-05-11T02:05:41.126Z,99353.27
2019-05-11T02:07:47.526Z,99354.60
2019-05-11T02:09:53.955Z,99348.02
2019-05-11T02:12:00.501Z,99350.20
2019-05-11T02:14:06.969Z,99354.16
2019-05-11T02:16:13.373Z,99354.61
2019-05-11T02:18:19.875Z,99355.48
2019-05-11T02:20:26.472Z,99355.49
2019-05-11T02:22:32.900Z,99359.02
2019-05-11T02:24:39.298Z,99355.94
2019-05-11T02:26:45.811Z,99345.83
2019-05-11T02:28:52.197Z,99351.11
2019-05-11T02:30:58.682Z,99348.44
2019-05-11T02:33:05.133Z,99349.32
2019-05-11T02:35:12.223Z,99347.13
2019-05-11T02:37:18.647Z,99348.44
2019-05-11T02:39:25.054Z,99352.42
2019-05-11T02:41:36.176Z,99358.58
2019-05-11T02:43:39.875Z,99362.97
2019-05-11T02:45:46.360Z,99361.20
2019-05-11T02:47:52.780Z,99358.56
2019-05-11T02:49:59.251Z,99359.00
2019-05-11T02:52:06.011Z,99371.31
2019-05-11T02:54:13.065Z,99366.92
2019-05-11T02:56:19.570Z,99361.20
2019-05-11T02:58:26.030Z,99355.93
2019-05-11T03:00:44.728Z,99359.45
2019-05-11T03:02:51.110Z,99362.53
2019-05-11T03:04:57.648Z,99363.84
2019-05-11T03:07:04.132Z,99363.41
2019-05-11T03:09:10.583Z,99369.98
2019-05-11T03:11:18.330Z,99372.19
2019-05-11T03:13:24.833Z,99369.11
2019-05-11T03:15:31.528Z,99370.88
2019-05-11T03:17:37.910Z,99373.97
2019-05-11T03:19:44.516Z,99370.88
2019-05-11T03:21:51.019Z,99381.00
2019-05-11T03:23:57.430Z,99382.32
2019-05-11T03:26:04.011Z,99384.95
2019-05-11T03:28:10.499Z,99381.87
2019-05-11T03:30:17.431Z,99385.83
2019-05-11T03:32:23.908Z,99384.51
2019-05-11T03:34:30.401Z,99388.90
2019-05-11T03:36:36.787Z,99387.14
2019-05-11T03:38:43.204Z,99390.66
2019-05-11T03:40:49.597Z,99388.02
2019-05-11T03:42:56.048Z,99392.43
2019-05-11T03:45:02.542Z,99389.80
2019-05-11T03:47:09.157Z,99388.45
2019-05-11T03:49:15.631Z,99392.42
2019-05-11T03:51:22.032Z,99399.47
2019-05-11T03:53:28.534Z,99394.16
2019-05-11T03:55:34.976Z,99398.56
2019-05-11T03:57:41.482Z,99398.58
2019-05-11T03:59:47.905Z,99400.78
2019-05-11T04:01:55.439Z,99405.59
2019-05-11T04:04:01.878Z,99406.92
2019-05-11T04:06:08.361Z,99410.88
2019-05-11T04:08:14.772Z,99409.09
2019-05-11T04:10:24.828Z,99415.70
2019-05-11T04:12:35.507Z,99418.78
2019-05-11T04:14:38.790Z,99414.80
2019-05-11T04:16:45.306Z,99420.11
2019-05-11T04:18:51.709Z,99419.20
2019-05-11T04:20:58.121Z,99421.41
2019-05-11T04:23:04.596Z,99416.09
2019-05-11T04:25:11.687Z,99416.96
2019-05-11T04:27:19.608Z,99417.80
2019-05-11T04:29:26.458Z,99413.34
2019-05-11T04:31:32.935Z,99409.31
2019-05-11T04:33:39.348Z,99405.71
2019-05-11T04:35:45.861Z,99403.82
2019-05-11T04:37:52.308Z,99401.97
2019-05-11T04:39:58.658Z,99404.07
2019-05-11T04:42:05.387Z,99399.56
2019-05-11T04:44:12.089Z,99401.22
2019-05-11T04:46:18.572Z,99403.31
2019-05-11T04:48:25.409Z,99403.20
2019-05-11T04:50:31.921Z,99409.72
2019-05-11T04:52:38.361Z,99405.16
2019-05-11T04:54:44.842Z,99406.44
2019-05-11T04:56:51.463Z,99406.45
2019-05-11T04:58:57.932Z,99401.59
2019-05-11T05:01:06.037Z,99401.11
2019-05-11T05:03:12.622Z,99404.12
2019-05-11T05:05:19.087Z,99405.80
2019-05-11T05:07:25.626Z,99406.90
2019-05-11T05:09:35.901Z,99407.55
2019-05-11T05:11:40.240Z,99400.71
2019-05-11T05:13:46.712Z,99400.13
2019-05-11T05:15:53.172Z,99403.33
2019-05-11T05:17:59.601Z,99411.92
2019-05-11T05:20:09.295Z,99408.25
2019-05-11T05:22:15.785Z,99409.11
2019-05-11T05:24:23.270Z,99411.36
2019-05-11T05:26:29.673Z,99413.91
2019-05-11T05:28:36.139Z,99411.18
2019-05-11T05:30:42.642Z,99417.00
2019-05-11T05:32:49.105Z,99410.73
2019-05-11T05:34:55.499Z,99420.57
2019-05-11T05:37:02.188Z,99416.34
2019-05-11T05:39:09.449Z,99411.73
2019-05-11T05:41:16.001Z,99420.80
2019-05-11T05:43:27.719Z,99424.41
2019-05-11T05:45:30.652Z,99433.38
2019-05-11T05:47:37.130Z,99431.47
2019-05-11T05:49:43.574Z,99429.63
2019-05-11T05:51:50.119Z,99429.50
2019-05-11T05:53:56.525Z,99430.74
2019-05-11T05:56:03.049Z,99433.23
2019-05-11T05:58:09.443Z,99432.52
2019-05-11T06:00:16.135Z,99430.71
2019-05-11T06:02:22.599Z,99430.94
2019-05-11T06:04:29.968Z,99425.81
2019-05-11T06:06:36.403Z,99415.58
2019-05-11T06:08:43.376Z,99417.32
2019-05-11T06:10:49.925Z,99415.38
2019-05-11T06:12:56.500Z,99414.34
2019-05-11T06:15:02.977Z,99416.07
2019-05-11T06:17:09.449Z,99414.39
2019-05-11T06:19:15.884Z,99420.55
2019-05-11T06:21:22.370Z,99419.63
2019-05-11T06:23:28.878Z,99418.44
2019-05-11T06:25:35.370Z,99417.38
2019-05-11T06:27:41.884Z,99424.81
2019-05-11T06:29:48.370Z,99415.44
2019-05-11T06:31:54.828Z,99411.21
2019-05-11T06:34:01.343Z,99418.27
2019-05-11T06:36:07.751Z,99408.97
2019-05-11T06:38:14.161Z,99411.74
2019-05-11T06:40:21.494Z,99412.63
2019-05-11T06:42:29.214Z,99415.02
2019-05-11T06:44:35.613Z,99413.66
2019-05-11T06:46:42.043Z,99413.55
2019-05-11T06:48:48.523Z,99408.96
2019-05-11T06:50:54.910Z,99413.09
2019-05-11T06:53:01.411Z,99419.39
2019-05-11T06:55:08.218Z,99407.55
2019-05-11T06:57:14.689Z,99418.27
2019-05-11T06:59:21.206Z,99423.80
2019-05-11T07:01:27.775Z,99417.77
2019-05-11T07:03:34.329Z,99419.45
2019-05-11T07:05:41.929Z,99412.89
2019-05-11T07:07:48.336Z,99415.27
2019-05-11T07:09:54.726Z,99417.66
2019-05-11T07:12:01.245Z,99411.77
2019-05-11T07:14:19.892Z,99410.70
2019-05-11T07:16:16.076Z,99411.70
2019-05-11T07:18:22.597Z,99422.57
2019-05-11T07:20:29.129Z,99421.78
2019-05-11T07:22:35.523Z,99434.44
2019-05-11T07:24:41.946Z,99437.86
2019-05-11T07:26:48.370Z,99438.38
2019-05-11T07:28:58.016Z,99446.12
2019-05-11T07:31:04.401Z,99440.25
2019-05-11T07:33:10.937Z,99444.63
2019-05-11T07:35:18.808Z,99446.20
2019-05-11T07:37:27.851Z,99455.16
2019-05-11T07:39:34.563Z,99449.21
2019-05-11T07:41:42.056Z,99448.20
2019-05-11T07:43:50.066Z,99447.16
2019-05-11T07:45:58.470Z,99433.64
2019-05-11T07:48:04.769Z,99434.63
2019-05-11T07:50:11.479Z,99429.83
2019-05-11T07:52:19.144Z,99424.30
2019-05-11T07:54:27.910Z,99428.36
2019-05-11T07:56:33.876Z,99432.65
2019-05-11T07:58:40.448Z,99425.91
2019-05-11T08:00:48.863Z,99423.98
2019-05-11T08:02:58.299Z,99432.10
2019-05-11T08:05:05.549Z,99434.74
2019-05-11T08:07:13.194Z,99432.05
2019-05-11T08:09:19.625Z,99433.51
2019-05-11T08:11:28.908Z,99426.97
2019-05-11T08:13:34.221Z,99433.88
2019-05-11T08:15:40.746Z,99425.28
2019-05-11T08:17:48.742Z,99434.28
2019-05-11T08:19:57.932Z,99427.44
2019-05-11T08:22:04.025Z,99423.16
2019-05-11T08:24:10.428Z,99428.71
2019-05-11T08:26:19.040Z,99432.75
2019-05-11T08:28:25.026Z,99437.63
2019-05-11T08:30:33.028Z,99436.79
2019-05-11T08:32:40.898Z,99439.85
2019-05-11T08:34:49.110Z,99439.78
2019-05-11T08:36:55.584Z,99438.75
2019-05-11T08:39:02.117Z,99441.45
2019-05-11T08:41:09.801Z,99444.27
2019-05-11T08:43:17.990Z,99438.76
2019-05-11T08:45:25.016Z,99441.62
2019-05-11T08:47:32.348Z,99438.86
2019-05-11T08:49:38.753Z,99449.28
2019-05-11T08:51:47.658Z,99439.35
2019-05-11T08:53:53.368Z,99433.77
2019-05-11T08:56:01.092Z,99440.79
2019-05-11T08:58:08.638Z,99444.69
2019-05-11T09:00:17.894Z,99439.61
2019-05-11T09:02:24.318Z,99433.50
2019-05-11T09:04:30.704Z,99439.91
2019-05-11T09:06:37.769Z,99443.25
2019-05-11T09:08:44.269Z,99448.00
2019-05-11T09:10:51.769Z,99446.13
2019-05-11T09:12:59.044Z,99446.78
2019-05-11T09:15:08.766Z,99444.13
2019-05-11T09:17:15.564Z,99447.28
2019-05-11T09:19:23.298Z,99451.38
2019-05-11T09:21:30.851Z,99449.05
2019-05-11T09:23:40.521Z,99452.66
2019-05-11T09:25:47.568Z,99449.53
2019-05-11T09:27:53.787Z,99455.29
2019-05-11T09:30:00.270Z,99442.02
2019-05-11T09:32:08.871Z,99443.59
2019-05-11T09:34:15.293Z,99440.35
2019-05-11T09:36:22.106Z,99439.23
2019-05-11T09:38:28.606Z,99434.70
2019-05-11T09:40:35.302Z,99442.91
2019-05-11T09:42:41.836Z,99441.38
2019-05-11T09:44:48.707Z,99439.08
2019-05-11T09:46:58.710Z,99430.48
2019-05-11T09:49:03.386Z,99435.72
2019-05-11T09:51:09.879Z,99443.97
2019-05-11T09:53:17.668Z,99439.44
2019-05-11T09:55:24.467Z,99453.19
2019-05-11T09:57:30.991Z,99452.03
2019-05-11T09:59:38.507Z,99449.64
2019-05-11T10:01:45.534Z,99458.30
2019-05-11T10:03:51.915Z,99460.94
2019-05-11T10:05:58.311Z,99452.21
2019-05-11T10:08:04.993Z,99455.41
2019-05-11T10:10:11.652Z,99457.04
2019-05-11T10:12:19.282Z,99466.55
2019-05-11T10:14:25.738Z,99464.96
2019-05-11T10:16:32.139Z,99461.44
2019-05-11T10:18:38.770Z,99452.52
2019-05-11T10:20:48.016Z,99458.55
2019-05-11T10:22:53.881Z,99455.48
2019-05-11T10:25:00.359Z,99451.20
2019-05-11T10:27:08.428Z,99447.19
2019-05-11T10:29:15.117Z,99451.56
2019-05-11T10:31:21.708Z,99453.19
2019-05-11T10:33:28.305Z,99452.37
2019-05-11T10:35:34.791Z,99446.20
2019-05-11T10:37:41.243Z,99446.70
2019-05-11T10:39:48.833Z,99450.64
2019-05-11T10:41:55.358Z,99453.78
2019-05-11T10:44:01.809Z,99453.78
2019-05-11T10:46:18.009Z,99462.46
2019-05-11T10:48:17.732Z,99465.52
2019-05-11T10:50:24.756Z,99457.12
2019-05-11T10:52:31.262Z,99457.50
2019-05-11T10:54:39.685Z,99456.24
2019-05-11T10:56:48.026Z,99451.01
2019-05-11T10:58:54.093Z,99455.23
2019-05-11T11:01:00.625Z,99448.12
2019-05-11T11:03:08.568Z,99448.54
2019-05-11T11:05:15.366Z,99446.84
2019-05-11T11:07:21.837Z,99447.97
2019-05-11T11:09:28.441Z,99457.30
2019-05-11T11:11:35.037Z,99459.83
2019-05-11T11:13:41.431Z,99448.22
2019-05-11T11:15:48.585Z,99451.77
2019-05-11T11:17:57.753Z,99454.27
2019-05-11T11:20:04.611Z,99451.36
2019-05-11T11:22:33.311Z,99451.20
2019-05-11T11:24:19.562Z,99457.22
2019-05-11T11:26:25.993Z,99454.00
2019-05-11T11:28:32.392Z,99455.75
2019-05-11T11:30:38.964Z,99456.52
2019-05-11T11:32:48.094Z,99460.22
2019-05-11T11:34:53.937Z,99462.31
2019-05-11T11:37:00.405Z,99464.88
2019-05-11T11:39:08.492Z,99464.84
2019-05-11T11:41:17.869Z,99468.30
2019-05-11T11:43:28.676Z,99468.91
2019-05-11T11:45:34.777Z,99465.41
2019-05-11T11:47:41.310Z,99464.69
2019-05-11T11:49:47.812Z,99465.25
2019-05-11T11:51:54.276Z,99473.16
2019-05-11T11:54:00.911Z,99467.56
2019-05-11T11:56:08.283Z,99465.35
2019-05-11T11:58:15.093Z,99471.82
2019-05-11T12:00:21.810Z,99472.17
2019-05-11T12:02:28.351Z,99466.41
2019-05-11T12:04:34.738Z,99463.64
2019-05-11T12:06:41.140Z,99467.50
2019-05-11T12:08:49.663Z,99470.44
2019-05-11T12:10:55.952Z,99472.39
2019-05-11T12:13:03.526Z,99465.20
2019-05-11T12:15:10.328Z,99472.63
2019-05-11T12:17:18.284Z,99472.86
2019-05-11T12:19:24.848Z,99476.16
2019-05-11T12:21:31.285Z,99483.98
2019-05-11T12:23:38.303Z,99484.91
2019-05-11T12:25:45.159Z,99484.80
2019-05-11T12:27:51.659Z,99476.50
2019-05-11T12:29:58.365Z,99482.72
2019-05-11T12:32:08.185Z,99485.91
2019-05-11T12:34:14.907Z,99482.45
2019-05-11T12:36:22.389Z,99486.89
2019-05-11T12:38:29.857Z,99483.59
2019-05-11T12:40:38.653Z,99489.77
2019-05-11T12:42:44.512Z,99486.90
2019-05-11T12:44:50.951Z,99489.92
2019-05-11T12:46:58.313Z,99491.78
2019-05-11T12:49:07.322Z,99498.63
2019-05-11T12:51:13.433Z,99496.17
2019-05-11T12:53:19.882Z,99497.87
2019-05-11T12:55:28.447Z,99497.30
2019-05-11T12:57:34.499Z,99497.05
2019-05-11T12:59:42.139Z,99487.06
2019-05-11T13:01:48.770Z,99494.91
2019-05-11T13:03:55.210Z,99496.49
2019-05-11T13:06:01.716Z,99493.66
2019-05-11T13:08:08.295Z,99492.78
2019-05-11T13:10:17.752Z,99492.28
2019-05-11T13:12:24.660Z,99489.25
2019-05-11T13:14:32.126Z,99488.84
2019-05-11T13:16:38.708Z,99501.77
2019-05-11T13:18:45.184Z,99496.23
2019-05-11T13:20:51.650Z,99494.82
2019-05-11T13:22:58.886Z,99486.31
2019-05-11T13:25:08.515Z,99485.25
2019-05-11T13:27:17.855Z,99492.63
2019-05-11T13:29:24.880Z,99496.94
2019-05-11T13:31:31.280Z,99502.69
2019-05-11T13:33:38.436Z,99494.89
2019-05-11T13:35:45.039Z,99496.45
2019-05-11T13:37:51.513Z,99496.81
2019-05-11T13:39:58.090Z,99496.45
2019-05-11T13:42:04.682Z,99493.25
2019-05-11T13:44:11.148Z,99483.05
2019-05-11T13:46:19.103Z,99480.26
2019-05-11T13:48:25.542Z,99491.97
2019-05-11T13:50:32.041Z,99493.23
2019-05-11T13:52:38.784Z,99496.89
2019-05-11T13:54:45.278Z,99496.78
2019-05-11T13:56:51.688Z,99501.59
2019-05-11T13:58:59.871Z,99503.69
2019-05-11T14:01:08.113Z,99503.25
2019-05-11T14:03:14.926Z,99502.81
2019-05-11T14:05:21.379Z,99505.02
2019-05-11T14:07:27.812Z,99508.34
2019-05-11T14:09:34.319Z,99509.62
2019-05-11T14:11:44.902Z,99500.50
2019-05-11T14:13:50.215Z,99504.53
2019-05-11T14:15:58.669Z,99505.41
2019-05-11T14:18:08.683Z,99515.49
2019-05-11T14:20:13.378Z,99507.09
2019-05-11T14:22:19.848Z,99509.53
2019-05-11T14:24:28.647Z,99512.43
2019-05-11T14:26:34.715Z,99508.17
2019-05-11T14:28:42.311Z,99507.54
2019-05-11T14:30:48.803Z,99508.68
2019-05-11T14:32:55.365Z,99508.62
2019-05-11T14:35:01.973Z,99508.83
2019-05-11T14:37:09.610Z,99510.84
2019-05-11T14:39:18.789Z,99515.30
2019-05-11T14:41:24.413Z,99511.39
2019-05-11T14:43:30.941Z,99519.67
2019-05-11T14:45:38.085Z,99511.27
2019-05-11T14:47:47.749Z,99510.60
2019-05-11T14:49:53.042Z,99511.07
2019-05-11T14:51:59.678Z,99516.94
2019-05-11T14:54:08.226Z,99516.52
2019-05-11T14:56:14.327Z,99515.33
2019-05-11T14:58:20.786Z,99519.46
2019-05-11T15:00:28.962Z,99524.00
2019-05-11T15:02:50.084Z,99525.55
2019-05-11T15:04:58.541Z,99525.17
2019-05-11T15:07:04.391Z,99527.85
2019-05-11T15:09:10.818Z,99522.79
2019-05-11T15:11:19.174Z,99532.07
2019-05-11T15:13:25.456Z,99532.43
2019-05-11T15:15:31.999Z,99532.02
2019-05-11T15:17:39.652Z,99537.48
2019-05-11T15:19:46.283Z,99533.92
2019-05-11T15:21:52.778Z,99530.37
2019-05-11T15:23:59.598Z,99535.98
2019-05-11T15:26:10.036Z,99538.30
2019-05-11T15:28:18.158Z,99537.90
2019-05-11T15:30:25.015Z,99543.48
2019-05-11T15:32:31.492Z,99540.27
2019-05-11T15:34:38.000Z,99552.48
2019-05-11T15:36:44.386Z,99547.17
2019-05-11T15:38:50.889Z,99550.27
2019-05-11T15:40:57.964Z,99546.42
2019-05-11T15:43:04.519Z,99545.77
2019-05-11T15:45:11.863Z,99550.03
2019-05-11T15:47:18.257Z,99546.35
2019-05-11T15:49:24.706Z,99549.59
2019-05-11T15:51:31.107Z,99553.59
2019-05-11T15:53:37.555Z,99556.16
2019-05-11T15:55:44.057Z,99552.11
2019-05-11T15:57:50.580Z,99555.69
2019-05-11T15:59:58.373Z,99553.73
2019-05-11T16:02:05.056Z,99552.14
2019-05-11T16:04:11.455Z,99557.22
2019-05-11T16:06:18.515Z,99553.30
2019-05-11T16:08:25.208Z,99556.89
2019-05-11T16:10:31.614Z,99553.14
2019-05-11T16:12:39.026Z,99557.72
2019-05-11T16:14:45.813Z,99563.58
2019-05-11T16:16:52.208Z,99560.11
2019-05-11T16:19:10.709Z,99560.63
2019-05-11T16:21:07.674Z,99557.75
2019-05-11T16:23:14.371Z,99564.11
2019-05-11T16:25:20.969Z,99567.16
2019-05-11T16:27:28.464Z,99566.73
2019-05-11T16:29:35.021Z,99563.14
2019-05-11T16:31:41.449Z,99567.11
2019-05-11T16:33:48.476Z,99573.75
2019-05-11T16:35:55.021Z,99575.92
2019-05-11T16:38:01.469Z,99575.92
2019-05-11T16:40:09.637Z,99580.86
2019-05-11T16:42:16.280Z,99578.18
2019-05-11T16:44:22.782Z,99584.45
2019-05-11T16:46:29.286Z,99583.20
2019-05-11T16:48:38.122Z,99589.52
2019-05-11T16:50:44.007Z,99590.03
2019-05-11T16:52:50.688Z,99589.27
2019-05-11T16:54:58.327Z,99593.33
2019-05-11T16:57:04.856Z,99596.05
2019-05-11T16:59:11.332Z,99601.44
2019-05-11T17:01:18.802Z,99599.81
2019-05-11T17:03:27.740Z,99600.89
2019-05-11T17:05:34.039Z,99603.32
2019-05-11T17:07:40.524Z,99607.08
2019-05-11T17:09:48.280Z,99606.02
2019-05-11T17:11:55.030Z,99615.13
2019-05-11T17:14:01.456Z,99610.74
2019-05-11T17:16:08.694Z,99617.62
2019-05-11T17:18:15.325Z,99615.56
2019-05-11T17:20:23.468Z,99625.56
2019-05-11T17:22:29.980Z,99624.84
2019-05-11T17:24:37.914Z,99622.39
2019-05-11T17:26:44.749Z,99626.55
2019-05-11T17:28:51.208Z,99624.52
2019-05-11T17:30:59.793Z,99629.14
2019-05-11T17:33:08.217Z,99626.64
2019-05-11T17:35:14.324Z,99633.88
2019-05-11T17:37:20.776Z,99631.42
2019-05-11T17:39:28.160Z,99635.57
2019-05-11T17:41:34.899Z,99641.08
2019-05-11T17:43:41.349Z,99638.59
2019-05-11T17:45:48.131Z,99643.70
2019-05-11T17:47:54.771Z,99652.36
2019-05-11T17:50:03.844Z,99649.82
2019-05-11T17:52:09.353Z,99660.23
2019-05-11T17:54:17.800Z,99664.84
2019-05-11T17:56:23.922Z,99662.78
2019-05-11T17:58:30.331Z,99665.61
2019-05-11T18:00:39.225Z,99665.81
2019-05-11T18:02:48.970Z,99673.57
2019-05-11T18:04:58.386Z,99674.20
2019-05-11T18:07:06.327Z,99677.03
2019-05-11T18:09:12.884Z,99675.84
2019-05-11T18:11:21.118Z,99679.13
2019-05-11T18:13:28.388Z,99677.50
2019-05-11T18:15:35.309Z,99681.16
2019-05-11T18:17:41.904Z,99683.53
2019-05-11T18:19:48.302Z,99679.23
2019-05-11T18:21:54.890Z,99686.98
2019-05-11T18:24:01.339Z,99693.91
2019-05-11T18:26:08.817Z,99703.00
2019-05-11T18:28:17.996Z,99703.20
2019-05-11T18:30:23.899Z,99709.15
2019-05-11T18:32:30.296Z,99710.24
2019-05-11T18:34:37.725Z,99721.04
2019-05-11T18:36:44.424Z,99721.59
2019-05-11T18:38:50.821Z,99718.63
2019-05-11T18:40:58.679Z,99718.75
2019-05-11T18:43:05.090Z,99719.74
2019-05-11T18:45:11.753Z,99724.25
2019-05-11T18:47:19.065Z,99724.80
2019-05-11T18:49:25.515Z,99728.84
2019-05-11T18:51:31.929Z,99731.55
2019-05-11T18:53:38.330Z,99729.84
2019-05-11T18:55:44.733Z,99741.84
2019-05-11T18:57:51.322Z,99739.22
2019-05-11T18:59:58.755Z,99748.16
2019-05-11T19:02:08.227Z,99741.58
2019-05-11T19:04:13.656Z,99747.00
2019-05-11T19:06:20.489Z,99751.52
2019-05-11T19:08:27.925Z,99747.14
2019-05-11T19:10:34.798Z,99761.81
2019-05-11T19:12:41.199Z,99752.57
2019-05-11T19:14:48.031Z,99761.05
2019-05-11T19:16:54.469Z,99765.04
2019-05-11T19:19:00.860Z,99761.14
2019-05-11T19:21:09.155Z,99769.12
2019-05-11T19:23:15.514Z,99771.84
2019-05-11T19:25:22.114Z,99769.22
2019-05-11T19:27:28.944Z,99775.45
2019-05-11T19:29:37.723Z,99770.61
2019-05-11T19:31:44.020Z,99772.89
2019-05-11T19:33:50.501Z,99773.36
2019-05-11T19:35:58.737Z,99776.06
2019-05-11T19:38:05.584Z,99770.79
2019-05-11T19:40:13.280Z,99767.30
2019-05-11T19:42:19.944Z,99770.84
2019-05-11T19:44:27.978Z,99773.05
2019-05-11T19:46:34.747Z,99773.50
2019-05-11T19:48:41.329Z,99777.05
2019-05-11T19:51:03.790Z,99780.62
2019-05-11T19:52:59.402Z,99788.13
2019-05-11T19:55:08.539Z,99781.52
2019-05-11T19:57:17.719Z,99789.06
2019-05-11T19:59:23.315Z,99786.86
2019-05-11T20:01:29.794Z,99791.31
2019-05-11T20:03:37.835Z,99791.77
2019-05-11T20:05:44.562Z,99796.20
2019-05-11T20:07:51.006Z,99800.63
2019-05-11T20:09:57.401Z,99799.73
2019-05-11T20:12:03.874Z,99798.41
2019-05-11T20:14:10.292Z,99802.81
2019-05-11T20:16:18.691Z,99801.08
2019-05-11T20:18:28.658Z,99801.08
2019-05-11T20:20:37.553Z,99803.30
2019-05-11T20:22:43.611Z,99797.56
2019-05-11T20:24:49.999Z,99805.50
2019-05-11T20:26:56.434Z,99801.52
2019-05-11T20:29:03.027Z,99805.96
2019-05-11T20:31:09.530Z,99805.95
2019-05-11T20:33:15.935Z,99804.17
2019-05-11T20:35:23.926Z,99805.93
2019-05-11T20:37:30.418Z,99805.95
2019-05-11T20:39:37.923Z,99810.80
2019-05-11T20:41:44.723Z,99801.97
2019-05-11T20:43:52.441Z,99803.30
2019-05-11T20:45:58.837Z,99804.63
2019-05-11T20:48:07.756Z,99813.00
2019-05-11T20:50:13.934Z,99815.63
2019-05-11T20:52:20.543Z,99813.87
2019-05-11T20:54:28.163Z,99818.72
2019-05-11T20:56:34.846Z,99814.76
2019-05-11T20:58:59.209Z,99817.84
2019-05-11T21:01:04.988Z,99815.66
2019-05-11T21:03:11.678Z,99817.84
2019-05-11T21:05:19.833Z,99816.06
2019-05-11T21:07:28.025Z,99809.91
2019-05-11T21:09:34.575Z,99816.07
2019-05-11T21:11:41.642Z,99812.53
2019-05-11T21:13:48.247Z,99819.14
2019-05-11T21:15:59.104Z,99818.27
2019-05-11T21:18:05.026Z,99819.16
2019-05-11T21:20:12.218Z,99817.40
2019-05-11T21:22:18.619Z,99817.84
2019-05-11T21:24:25.015Z,99820.48
2019-05-11T21:26:31.461Z,99823.57
2019-05-11T21:28:38.080Z,99821.80
2019-05-11T21:30:44.620Z,99825.77
2019-05-11T21:32:51.189Z,99826.19
2019-05-11T21:34:58.367Z,99827.51
2019-05-11T21:37:07.730Z,99832.35
2019-05-11T21:39:14.087Z,99838.07
2019-05-11T21:41:20.704Z,99843.78
2019-05-11T21:43:27.215Z,99844.69
2019-05-11T21:45:33.694Z,99841.14
2019-05-11T21:47:40.415Z,99853.48
2019-05-11T21:49:48.486Z,99852.58
2019-05-11T21:52:04.125Z,99856.10
2019-05-11T21:54:03.017Z,99860.50
2019-05-11T21:56:09.547Z,99856.55
2019-05-11T21:58:18.292Z,99858.75
2019-05-11T22:00:28.113Z,99866.23
2019-05-11T22:02:38.411Z,99866.25
2019-05-11T22:04:44.923Z,99872.81
2019-05-11T22:06:51.499Z,99877.66
2019-05-11T22:08:58.951Z,99878.94
2019-05-11T22:11:05.696Z,99885.08
2019-05-11T22:13:12.153Z,99886.80
2019-05-11T22:15:19.076Z,99897.33
2019-05-11T22:17:25.489Z,99900.86
2019-05-11T22:19:31.973Z,99897.73
2019-05-11T22:21:38.370Z,99900.30
2019-05-11T22:23:44.848Z,99898.95
2019-05-11T22:25:51.316Z,99898.92
2019-05-11T22:27:57.760Z,99906.40
2019-05-11T22:30:08.182Z,99908.16
2019-05-11T22:32:14.289Z,99905.94
2019-05-11T22:34:20.792Z,99903.28
2019-05-11T22:36:28.186Z,99903.73
2019-05-11T22:38:34.899Z,99901.94
2019-05-11T22:40:41.470Z,99904.53
2019-05-11T22:42:47.859Z,99905.84
2019-05-11T22:44:54.245Z,99907.62
2019-05-11T22:47:00.649Z,99915.08
2019-05-11T22:49:08.453Z,99913.75
2019-05-11T22:51:15.144Z,99919.02
2019-05-11T22:53:21.684Z,99915.04
2019-05-11T22:55:28.081Z,99919.85
2019-05-11T22:57:34.555Z,99917.20
2019-05-11T22:59:40.961Z,99920.32
2019-05-11T23:01:48.340Z,99920.78
2019-05-11T23:03:55.054Z,99920.34
2019-05-11T23:06:01.511Z,99919.88
2019-05-11T23:08:08.102Z,99916.80
2019-05-11T23:10:14.715Z,99915.89
2019-05-11T23:12:21.195Z,99912.80
2019-05-11T23:14:28.230Z,99918.08
2019-05-11T23:16:34.895Z,99919.82
2019-05-11T23:18:41.282Z,99916.73
2019-05-11T23:20:47.967Z,99919.80
2019-05-11T23:23:00.577Z,99919.33
2019-05-11T23:25:02.457Z,99921.50
2019-05-11T23:27:08.928Z,99918.41
2019-05-11T23:29:15.390Z,99911.80
2019-05-11T23:31:21.851Z,99918.83
2019-05-11T23:33:28.245Z,99919.28
2019-05-11T23:35:34.735Z,99921.46
2019-05-11T23:37:42.653Z,99923.22
2019-05-11T23:39:49.183Z,99922.75
2019-05-11T23:41:55.577Z,99921.88
2019-05-11T23:44:01.971Z,99919.22
2019-05-11T23:46:08.428Z,99922.72
2019-05-11T23:48:14.924Z,99929.73
2019-05-11T23:50:21.656Z,99924.44
2019-05-11T23:52:29.575Z,99925.30
2019-05-11T23:54:38.199Z,99927.52
2019-05-11T23:56:44.210Z,99929.70
2019-05-11T23:58:50.667Z,99928.84
